createdAt,value
2022-09-30T00:01:56.474Z,10.20
2022-09-30T00:04:25.541Z,10.10
2022-09-30T00:06:53.733Z,10.00
2022-09-30T00:09:20.960Z,10.10
2022-09-30T00:11:48.044Z,10.10
2022-09-30T00:14:18.067Z,10.20
2022-09-30T00:16:45.819Z,10.20
2022-09-30T00:19:13.553Z,10.20
2022-09-30T00:21:41.833Z,10.20
2022-09-30T00:24:08.788Z,10.20
2022-09-30T00:26:36.315Z,10.20
2022-09-30T00:29:03.800Z,10.30
2022-09-30T00:31:33.606Z,10.30
2022-09-30T00:34:00.837Z,10.30
2022-09-30T00:36:27.628Z,10.20
2022-09-30T00:38:55.769Z,10.20
2022-09-30T00:41:22.664Z,10.30
2022-09-30T00:43:49.954Z,10.30
2022-09-30T00:46:23.180Z,10.30
2022-09-30T00:48:53.894Z,10.20
2022-09-30T00:51:27.492Z,10.30
2022-09-30T00:53:58.818Z,10.20
2022-09-30T00:56:29.478Z,10.30
2022-09-30T00:59:02.690Z,10.20
2022-09-30T01:01:31.504Z,10.10
2022-09-30T01:04:02.729Z,10.00
2022-09-30T01:06:29.905Z,10.00
2022-09-30T01:08:58.548Z,10.10
2022-09-30T01:11:27.040Z,10.10
2022-09-30T01:13:57.300Z,10.10
2022-09-30T01:16:39.882Z,9.90
2022-09-30T01:19:35.664Z,9.90
2022-09-30T01:22:28.388Z,9.90
2022-09-30T01:25:28.088Z,9.90
2022-09-30T01:28:11.278Z,10.00
2022-09-30T01:31:01.548Z,10.00
2022-09-30T01:33:39.130Z,10.10
2022-09-30T01:36:17.944Z,10.00
2022-09-30T01:38:51.601Z,10.00
2022-09-30T01:41:26.173Z,10.00
2022-09-30T01:44:02.758Z,9.90
2022-09-30T01:50:04.566Z,10.00
2022-09-30T01:52:38.902Z,10.00
2022-09-30T01:55:13.168Z,10.00
2022-09-30T01:57:46.332Z,10.00
2022-09-30T02:00:13.682Z,10.00
2022-09-30T02:02:45.596Z,10.00
2022-09-30T02:05:19.311Z,10.10
2022-09-30T02:07:49.382Z,10.10
2022-09-30T02:10:20.748Z,10.10
2022-09-30T02:12:50.804Z,10.10
2022-09-30T02:15:22.518Z,10.00
2022-09-30T02:17:52.827Z,10.00
2022-09-30T02:20:24.792Z,9.90
2022-09-30T02:22:56.846Z,10.00
2022-09-30T02:25:29.562Z,10.00
2022-09-30T02:27:59.780Z,10.00
2022-09-30T02:30:26.744Z,10.00
2022-09-30T02:32:59.763Z,10.00
2022-09-30T02:35:34.558Z,10.00
2022-09-30T02:38:06.258Z,10.00
2022-09-30T02:40:38.517Z,10.00
2022-09-30T02:43:05.947Z,10.00
2022-09-30T02:45:42.837Z,9.90
2022-09-30T02:48:23.309Z,10.00
2022-09-30T02:50:54.478Z,9.90
2022-09-30T02:53:26.341Z,9.90
2022-09-30T02:56:17.439Z,9.90
2022-09-30T02:58:45.866Z,10.00
2022-09-30T03:01:15.853Z,9.90
2022-09-30T03:03:45.065Z,9.90
2022-09-30T03:06:14.009Z,9.90
2022-09-30T03:08:40.839Z,9.90
2022-09-30T03:11:12.234Z,9.80
2022-09-30T03:14:02.135Z,9.80
2022-09-30T03:16:40.572Z,9.80
2022-09-30T03:19:36.258Z,9.80
2022-09-30T03:22:26.322Z,9.80
2022-09-30T03:25:08.446Z,9.80
2022-09-30T03:27:43.702Z,9.80
2022-09-30T03:30:14.690Z,9.70
2022-09-30T03:32:56.225Z,9.70
2022-09-30T03:35:31.825Z,9.60
2022-09-30T03:38:09.335Z,9.70
2022-09-30T03:40:42.652Z,9.70
2022-09-30T03:43:18.579Z,9.60
2022-09-30T03:45:51.749Z,9.60
2022-09-30T03:48:20.675Z,9.60
2022-09-30T03:50:48.303Z,9.70
2022-09-30T03:53:16.529Z,9.70
2022-09-30T03:55:46.487Z,9.70
2022-09-30T03:58:13.395Z,9.60
2022-09-30T04:00:44.611Z,9.60
2022-09-30T04:03:11.530Z,9.60
2022-09-30T04:05:38.257Z,9.60
2022-09-30T04:08:05.022Z,9.60
2022-09-30T04:10:33.147Z,9.50
2022-09-30T04:12:59.932Z,9.60
2022-09-30T04:15:26.776Z,9.50
2022-09-30T04:17:53.537Z,9.50
2022-09-30T04:20:20.413Z,9.40
2022-09-30T04:22:47.210Z,9.50
2022-09-30T04:25:14.233Z,9.50
2022-09-30T04:27:42.360Z,9.50
2022-09-30T04:30:10.176Z,9.60
2022-09-30T04:32:36.920Z,9.60
2022-09-30T04:35:04.153Z,9.60
2022-09-30T04:37:31.007Z,9.60
2022-09-30T04:39:57.770Z,9.60
2022-09-30T04:42:24.575Z,9.60
2022-09-30T04:44:52.646Z,9.60
2022-09-30T04:47:19.390Z,9.50
2022-09-30T04:49:46.294Z,9.50
2022-09-30T04:52:13.099Z,9.50
2022-09-30T04:54:39.842Z,9.50
2022-09-30T04:57:06.716Z,9.50
2022-09-30T04:59:33.494Z,9.50
2022-09-30T05:02:01.661Z,9.50
2022-09-30T05:04:28.396Z,9.40
2022-09-30T05:06:55.160Z,9.30
2022-09-30T05:09:22.031Z,9.40
2022-09-30T05:11:48.889Z,9.40
2022-09-30T05:14:15.643Z,9.40
2022-09-30T05:16:42.417Z,9.40
2022-09-30T05:19:10.486Z,9.40
2022-09-30T05:21:37.393Z,9.30
2022-09-30T05:24:04.277Z,9.00
2022-09-30T05:26:30.993Z,9.00
2022-09-30T05:28:58.294Z,9.20
2022-09-30T05:31:25.241Z,9.20
2022-09-30T05:33:57.173Z,9.20
2022-09-30T05:36:26.118Z,9.20
2022-09-30T05:38:53.267Z,9.30
2022-09-30T05:41:20.003Z,9.20
2022-09-30T05:43:47.480Z,9.30
2022-09-30T05:46:14.533Z,9.20
2022-09-30T05:48:41.400Z,9.20
2022-09-30T05:51:08.715Z,9.20
2022-09-30T05:53:38.551Z,9.20
2022-09-30T05:56:06.041Z,9.20
2022-09-30T05:58:32.803Z,9.30
2022-09-30T06:01:10.650Z,9.30
2022-09-30T06:03:40.051Z,9.30
2022-09-30T06:06:07.281Z,9.30
2022-09-30T06:08:35.974Z,9.30
2022-09-30T06:11:08.201Z,9.30
2022-09-30T06:13:34.923Z,9.30
2022-09-30T06:16:02.453Z,9.30
2022-09-30T06:18:30.068Z,9.30
2022-09-30T06:20:57.245Z,9.30
2022-09-30T06:23:24.138Z,9.20
2022-09-30T06:25:52.984Z,9.20
2022-09-30T06:28:20.129Z,9.30
2022-09-30T06:30:47.048Z,9.30
2022-09-30T06:33:14.940Z,9.30
2022-09-30T06:35:41.884Z,9.30
2022-09-30T06:38:09.065Z,9.40
2022-09-30T06:40:36.047Z,9.40
2022-09-30T06:43:04.784Z,9.30
2022-09-30T06:45:33.072Z,9.30
2022-09-30T06:48:01.292Z,9.30
2022-09-30T06:50:28.329Z,9.30
2022-09-30T06:52:57.654Z,9.40
2022-09-30T06:55:24.525Z,9.40
2022-09-30T06:57:51.250Z,9.40
2022-09-30T07:00:19.638Z,9.40
2022-09-30T07:02:46.413Z,9.40
2022-09-30T07:05:13.108Z,9.40
2022-09-30T07:07:39.862Z,9.50
2022-09-30T07:10:07.339Z,9.40
2022-09-30T07:12:34.126Z,9.40
2022-09-30T07:15:00.861Z,9.50
2022-09-30T07:17:29.349Z,9.50
2022-09-30T07:19:56.188Z,9.50
2022-09-30T07:22:22.926Z,9.50
2022-09-30T07:24:49.686Z,9.60
2022-09-30T07:27:16.427Z,9.60
2022-09-30T07:30:04.331Z,9.70
2022-09-30T07:32:31.756Z,9.60
2022-09-30T07:34:58.588Z,9.70
2022-09-30T07:37:26.118Z,9.70
2022-09-30T07:39:53.366Z,9.70
2022-09-30T07:42:22.677Z,9.80
2022-09-30T07:44:50.075Z,9.80
2022-09-30T07:47:16.834Z,9.80
2022-09-30T07:49:45.248Z,9.80
2022-09-30T07:52:12.811Z,9.90
2022-09-30T07:54:44.222Z,9.90
2022-09-30T07:57:13.780Z,9.90
2022-09-30T07:59:41.542Z,9.90
2022-09-30T08:02:13.515Z,9.90
2022-09-30T08:04:43.631Z,10.00
2022-09-30T08:07:13.936Z,9.90
2022-09-30T08:09:40.963Z,9.90
2022-09-30T08:12:07.766Z,10.00
2022-09-30T08:14:34.668Z,10.00
2022-09-30T08:17:01.640Z,10.10
2022-09-30T08:19:30.112Z,10.10
2022-09-30T08:21:57.576Z,10.10
2022-09-30T08:24:27.288Z,10.10
2022-09-30T08:26:54.938Z,10.10
2022-09-30T08:29:42.510Z,10.10
2022-09-30T08:32:08.709Z,10.10
2022-09-30T08:34:36.046Z,10.20
2022-09-30T08:37:07.878Z,10.20
2022-09-30T08:39:37.495Z,10.20
2022-09-30T08:45:16.266Z,10.30
2022-09-30T08:47:50.287Z,10.30
2022-09-30T08:50:25.170Z,10.30
2022-09-30T08:52:54.975Z,10.30
2022-09-30T08:55:25.795Z,10.30
2022-09-30T08:57:55.443Z,10.40
2022-09-30T09:00:23.126Z,10.30
2022-09-30T09:02:53.297Z,10.30
2022-09-30T09:05:30.601Z,10.30
2022-09-30T09:08:04.297Z,10.30
2022-09-30T09:10:41.973Z,10.30
2022-09-30T09:13:18.386Z,10.40
2022-09-30T09:16:02.487Z,10.40
2022-09-30T09:18:43.487Z,10.40
2022-09-30T09:21:23.486Z,10.40
2022-09-30T09:23:53.093Z,10.40
2022-09-30T09:26:22.278Z,10.50
2022-09-30T09:29:07.090Z,10.50
2022-09-30T09:31:33.955Z,10.50
2022-09-30T09:34:08.616Z,10.60
2022-09-30T09:36:47.419Z,10.60
2022-09-30T09:39:32.981Z,10.50
2022-09-30T09:42:08.850Z,10.60
2022-09-30T09:44:42.891Z,10.60
2022-09-30T09:47:11.022Z,10.60
2022-09-30T09:49:41.620Z,10.60
2022-09-30T09:52:44.403Z,10.60
2022-09-30T09:55:12.434Z,10.70
2022-09-30T09:57:40.538Z,10.70
2022-09-30T10:00:09.133Z,10.70
2022-09-30T10:02:35.947Z,10.70
2022-09-30T10:05:02.900Z,10.70
2022-09-30T10:07:31.858Z,10.80
2022-09-30T10:10:08.101Z,10.80
2022-09-30T10:12:35.178Z,10.80
2022-09-30T10:15:19.094Z,10.80
2022-09-30T10:17:51.679Z,10.90
2022-09-30T10:20:24.547Z,11.00
2022-09-30T10:23:01.420Z,10.90
2022-09-30T10:25:28.377Z,10.90
2022-09-30T10:27:58.374Z,10.90
2022-09-30T10:30:45.820Z,10.90
2022-09-30T10:33:18.233Z,11.00
2022-09-30T10:36:00.489Z,11.00
2022-09-30T10:38:29.343Z,11.00
2022-09-30T10:40:56.953Z,11.00
2022-09-30T10:43:27.502Z,11.00
2022-09-30T10:46:20.823Z,11.00
2022-09-30T10:48:49.414Z,11.00
2022-09-30T10:51:24.959Z,11.10
2022-09-30T10:53:51.979Z,11.10
2022-09-30T10:56:51.306Z,11.10
2022-09-30T10:59:31.639Z,11.10
2022-09-30T11:02:16.094Z,11.10
2022-09-30T11:04:44.203Z,11.20
2022-09-30T11:07:16.820Z,11.20
2022-09-30T11:09:50.258Z,11.20
2022-09-30T11:12:23.137Z,11.20
2022-09-30T11:14:56.028Z,11.20
2022-09-30T11:17:30.693Z,11.20
2022-09-30T11:20:07.957Z,11.30
2022-09-30T11:22:41.826Z,11.30
2022-09-30T11:25:14.064Z,11.30
2022-09-30T11:27:54.998Z,11.30
2022-09-30T11:30:28.292Z,11.30
2022-09-30T11:33:09.209Z,11.30
2022-09-30T11:35:46.042Z,11.30
2022-09-30T11:38:30.233Z,11.30
2022-09-30T11:41:04.305Z,11.30
2022-09-30T11:43:42.808Z,11.30
2022-09-30T11:46:28.969Z,11.40
2022-09-30T11:49:21.906Z,11.40
2022-09-30T11:51:56.390Z,11.40
2022-09-30T11:54:37.178Z,11.40
2022-09-30T11:57:11.178Z,11.40
2022-09-30T11:59:44.340Z,11.40
2022-09-30T12:02:28.055Z,11.50
2022-09-30T12:05:00.177Z,11.50
2022-09-30T12:07:35.746Z,11.50
2022-09-30T12:10:14.038Z,11.50
2022-09-30T12:12:41.394Z,11.50
2022-09-30T12:15:14.878Z,11.50
2022-09-30T12:17:44.723Z,11.60
2022-09-30T12:20:18.032Z,11.60
2022-09-30T12:22:46.623Z,11.60
2022-09-30T12:25:18.261Z,11.60
2022-09-30T12:27:49.168Z,11.60
2022-09-30T12:30:18.611Z,11.60
2022-09-30T12:33:21.549Z,11.70
2022-09-30T12:36:32.561Z,11.70
2022-09-30T12:39:23.867Z,11.70
2022-09-30T12:42:05.120Z,11.70
2022-09-30T12:44:56.646Z,11.70
2022-09-30T12:47:35.255Z,11.70
2022-09-30T12:50:06.153Z,11.70
2022-09-30T12:52:35.925Z,11.70
2022-09-30T12:55:08.563Z,11.80
2022-09-30T12:57:40.102Z,11.80
2022-09-30T13:00:15.716Z,11.80
2022-09-30T13:02:47.918Z,11.80
2022-09-30T13:05:47.885Z,11.80
2022-09-30T13:08:43.850Z,11.90
2022-09-30T13:11:41.851Z,11.90
2022-09-30T13:14:41.768Z,11.90
2022-09-30T13:17:30.321Z,11.90
2022-09-30T13:20:00.542Z,12.00
2022-09-30T13:22:45.788Z,12.00
2022-09-30T13:25:19.547Z,12.00
2022-09-30T13:27:50.343Z,12.00
2022-09-30T13:30:42.116Z,12.00
2022-09-30T13:33:48.929Z,12.10
2022-09-30T13:36:28.412Z,12.10
2022-09-30T13:39:20.913Z,12.10
2022-09-30T13:42:16.641Z,12.10
2022-09-30T13:45:01.309Z,12.10
2022-09-30T13:47:35.242Z,12.20
2022-09-30T13:50:15.872Z,12.20
2022-09-30T13:52:47.189Z,12.20
2022-09-30T13:55:20.019Z,12.20
2022-09-30T13:58:07.497Z,12.20
2022-09-30T14:00:49.351Z,12.20
2022-09-30T14:03:40.155Z,12.20
2022-09-30T14:06:22.759Z,12.20
2022-09-30T14:09:10.890Z,12.20
2022-09-30T14:12:03.340Z,12.20
2022-09-30T14:15:04.797Z,12.20
2022-09-30T14:18:05.758Z,12.30
2022-09-30T14:20:54.771Z,12.30
2022-09-30T14:23:24.775Z,12.30
2022-09-30T14:25:58.966Z,12.30
2022-09-30T14:28:31.158Z,12.30
2022-09-30T14:31:08.244Z,12.30
2022-09-30T14:33:37.444Z,12.30
2022-09-30T14:36:11.857Z,12.30
2022-09-30T14:38:42.313Z,12.30
2022-09-30T14:41:19.884Z,12.30
2022-09-30T14:43:52.793Z,12.30
2022-09-30T14:46:30.883Z,12.30
2022-09-30T14:49:03.051Z,12.30
2022-09-30T14:51:37.542Z,12.30
2022-09-30T14:54:04.943Z,12.40
2022-09-30T14:56:37.260Z,12.40
2022-09-30T14:59:17.003Z,12.40
2022-09-30T15:01:49.307Z,12.40
2022-09-30T15:04:24.321Z,12.40
2022-09-30T15:06:55.277Z,12.40
2022-09-30T15:09:27.018Z,12.40
2022-09-30T15:11:53.897Z,12.40
2022-09-30T15:14:22.814Z,12.40
2022-09-30T15:16:52.740Z,12.40
2022-09-30T15:19:22.104Z,12.40
2022-09-30T15:21:50.821Z,12.40
2022-09-30T15:24:19.700Z,12.50
2022-09-30T15:26:47.865Z,12.40
2022-09-30T15:29:15.438Z,12.40
2022-09-30T15:31:45.655Z,12.50
2022-09-30T15:34:21.899Z,12.50
2022-09-30T15:36:57.554Z,12.50
2022-09-30T15:39:27.853Z,12.50
2022-09-30T15:41:54.635Z,12.50
2022-09-30T15:44:38.188Z,12.40
2022-09-30T15:47:07.003Z,12.50
2022-09-30T15:49:45.911Z,12.40
2022-09-30T15:52:35.748Z,12.40
2022-09-30T15:55:23.562Z,12.50
2022-09-30T15:57:51.880Z,12.40
2022-09-30T16:00:33.434Z,12.50
2022-09-30T16:03:24.154Z,12.50
2022-09-30T16:05:54.002Z,12.50
2022-09-30T16:08:23.402Z,12.50
2022-09-30T16:10:53.149Z,12.50
2022-09-30T16:13:24.898Z,12.50
2022-09-30T16:15:52.927Z,12.50
2022-09-30T16:18:23.633Z,12.50
2022-09-30T16:20:57.980Z,12.50
2022-09-30T16:23:29.989Z,12.60
2022-09-30T16:26:18.980Z,12.50
2022-09-30T16:28:47.118Z,12.50
2022-09-30T16:31:14.618Z,12.50
2022-09-30T16:33:43.265Z,12.50
2022-09-30T16:36:11.071Z,12.50
2022-09-30T16:38:38.510Z,12.50
2022-09-30T16:41:05.585Z,12.60
2022-09-30T16:43:32.751Z,12.60
2022-09-30T16:46:02.038Z,12.50
2022-09-30T16:48:29.055Z,12.60
2022-09-30T16:51:02.058Z,12.50
2022-09-30T16:53:28.938Z,12.60
2022-09-30T16:55:55.688Z,12.50
2022-09-30T16:58:22.747Z,12.50
2022-09-30T17:00:49.612Z,12.50
2022-09-30T17:03:18.604Z,12.60
2022-09-30T17:05:47.648Z,12.50
2022-09-30T17:08:16.723Z,12.50
2022-09-30T17:10:45.442Z,12.50
2022-09-30T17:13:12.274Z,12.50
2022-09-30T17:15:39.007Z,12.50
2022-09-30T17:18:07.723Z,12.50
2022-09-30T17:20:36.862Z,12.50
2022-09-30T17:23:07.301Z,12.50
2022-09-30T17:25:34.500Z,12.50
2022-09-30T17:28:01.657Z,12.40
2022-09-30T17:30:28.408Z,12.40
2022-09-30T17:32:55.177Z,12.40
2022-09-30T17:35:21.890Z,12.40
2022-09-30T17:37:50.023Z,12.40
2022-09-30T17:40:16.986Z,12.40
2022-09-30T17:42:43.711Z,12.50
2022-09-30T17:45:10.756Z,12.50
2022-09-30T17:47:37.581Z,12.50
2022-09-30T17:50:04.934Z,12.50
2022-09-30T17:52:31.641Z,12.50
2022-09-30T17:54:59.765Z,12.40
2022-09-30T17:57:26.503Z,12.40
2022-09-30T17:59:53.229Z,12.40
2022-09-30T18:02:20.102Z,12.40
2022-09-30T18:04:46.902Z,12.40
2022-09-30T18:07:13.662Z,12.40
2022-09-30T18:09:40.416Z,12.40
2022-09-30T18:12:08.614Z,12.40
2022-09-30T18:14:35.349Z,12.40
2022-09-30T18:17:03.108Z,12.30
2022-09-30T18:19:29.867Z,12.30
2022-09-30T18:21:56.613Z,12.30
2022-09-30T18:24:23.393Z,12.30
2022-09-30T18:26:50.150Z,12.30
2022-09-30T18:29:18.249Z,12.30
2022-09-30T18:31:45.002Z,12.30
2022-09-30T18:34:11.920Z,12.30
2022-09-30T18:36:38.694Z,12.30
2022-09-30T18:39:05.588Z,12.30
2022-09-30T18:41:32.633Z,12.30
2022-09-30T18:44:00.918Z,12.30
2022-09-30T18:46:29.318Z,12.30
2022-09-30T18:48:56.190Z,12.30
2022-09-30T18:51:23.407Z,12.30
2022-09-30T18:53:52.957Z,12.30
2022-09-30T18:56:19.716Z,12.30
2022-09-30T18:58:48.807Z,12.30
2022-09-30T19:01:15.655Z,12.30
2022-09-30T19:03:43.818Z,12.30
2022-09-30T19:06:10.649Z,12.30
2022-09-30T19:08:37.396Z,12.30
2022-09-30T19:11:12.577Z,12.30
2022-09-30T19:13:39.942Z,12.30
2022-09-30T19:16:07.092Z,12.30
2022-09-30T19:18:33.923Z,12.30
2022-09-30T19:21:06.335Z,12.30
2022-09-30T19:23:33.285Z,12.30
2022-09-30T19:26:00.192Z,12.20
2022-09-30T19:28:27.433Z,12.30
2022-09-30T19:30:54.178Z,12.30
2022-09-30T19:33:21.037Z,12.30
2022-09-30T19:35:51.065Z,12.20
2022-09-30T19:38:33.282Z,12.20
2022-09-30T19:41:01.579Z,12.20
2022-09-30T19:43:28.724Z,12.20
2022-09-30T19:45:57.075Z,12.20
2022-09-30T19:48:24.382Z,12.20
2022-09-30T19:50:57.704Z,12.20
2022-09-30T19:53:30.409Z,12.20
2022-09-30T19:56:02.313Z,12.20
2022-09-30T19:58:33.546Z,12.20
2022-09-30T20:01:01.402Z,12.20
2022-09-30T20:03:29.155Z,12.20
2022-09-30T20:05:59.934Z,12.20
2022-09-30T20:08:28.681Z,12.20
2022-09-30T20:11:01.268Z,12.20
2022-09-30T20:13:28.114Z,12.20
2022-09-30T20:15:54.910Z,12.20
2022-09-30T20:18:21.910Z,12.20
2022-09-30T20:20:48.680Z,12.20
2022-09-30T20:23:15.538Z,12.20
2022-09-30T20:25:43.883Z,12.20
2022-09-30T20:28:10.705Z,12.20
2022-09-30T20:30:41.771Z,12.20
2022-09-30T20:33:08.558Z,12.20
2022-09-30T20:35:35.549Z,12.10
2022-09-30T20:38:02.356Z,12.10
2022-09-30T20:40:29.148Z,12.10
2022-09-30T20:43:01.309Z,12.10
2022-09-30T20:45:28.579Z,12.10
2022-09-30T20:47:55.374Z,12.10
2022-09-30T20:50:22.202Z,12.10
2022-09-30T20:52:48.910Z,12.10
2022-09-30T20:55:15.705Z,12.10
2022-09-30T20:57:42.574Z,12.10
2022-09-30T21:00:12.506Z,12.10
2022-09-30T21:02:39.458Z,12.10
2022-09-30T21:05:06.916Z,12.10
2022-09-30T21:07:34.738Z,12.10
2022-09-30T21:10:01.570Z,12.10
2022-09-30T21:12:30.312Z,12.10
2022-09-30T21:14:57.083Z,12.10
2022-09-30T21:17:25.250Z,12.10
2022-09-30T21:19:52.110Z,12.10
2022-09-30T21:22:18.899Z,12.10
2022-09-30T21:24:45.652Z,12.10
2022-09-30T21:27:12.541Z,12.10
2022-09-30T21:29:39.463Z,12.10
2022-09-30T21:32:06.214Z,12.00
2022-09-30T21:34:34.432Z,12.00
2022-09-30T21:37:01.169Z,12.00
2022-09-30T21:39:27.985Z,12.00
2022-09-30T21:41:54.719Z,12.00
2022-09-30T21:44:21.527Z,12.00
2022-09-30T21:46:49.032Z,12.00
2022-09-30T21:49:17.468Z,12.00
2022-09-30T21:51:46.077Z,12.00
2022-09-30T21:54:13.116Z,12.00
2022-09-30T21:56:40.191Z,11.90
2022-09-30T21:59:07.099Z,11.90
2022-09-30T22:01:34.101Z,11.90
2022-09-30T22:04:01.272Z,12.00
2022-09-30T22:06:29.145Z,11.90
2022-09-30T22:08:58.158Z,11.90
2022-09-30T22:11:24.959Z,11.90
2022-09-30T22:13:53.173Z,11.90
2022-09-30T22:16:20.050Z,11.80
2022-09-30T22:18:46.845Z,11.80
2022-09-30T22:21:14.745Z,11.80
2022-09-30T22:23:41.561Z,11.80
2022-09-30T22:26:11.564Z,11.80
2022-09-30T22:28:39.150Z,11.70
2022-09-30T22:31:13.547Z,11.70
2022-09-30T22:33:40.622Z,11.70
2022-09-30T22:36:08.282Z,11.70
2022-09-30T22:38:35.078Z,11.60
2022-09-30T22:41:01.953Z,11.50
2022-09-30T22:43:32.607Z,11.60
2022-09-30T22:46:02.854Z,11.60
2022-09-30T22:48:29.819Z,11.50
2022-09-30T22:50:56.831Z,11.50
2022-09-30T22:53:23.883Z,11.50
2022-09-30T22:55:50.617Z,11.50
2022-09-30T22:58:17.439Z,11.50
2022-09-30T23:00:53.094Z,11.50
2022-09-30T23:03:19.889Z,11.50
2022-09-30T23:05:46.764Z,11.40
2022-09-30T23:08:13.656Z,11.40
2022-09-30T23:10:46.533Z,11.40
2022-09-30T23:13:13.253Z,11.40
2022-09-30T23:15:40.126Z,11.40
2022-09-30T23:18:08.203Z,11.30
2022-09-30T23:20:34.936Z,11.30
2022-09-30T23:23:01.820Z,11.30
2022-09-30T23:25:28.594Z,11.30
2022-09-30T23:27:55.375Z,11.20
2022-09-30T23:30:22.101Z,11.20
2022-09-30T23:32:48.969Z,11.20
2022-09-30T23:35:17.317Z,11.20
2022-09-30T23:37:44.324Z,11.30
2022-09-30T23:40:11.218Z,11.30
2022-09-30T23:42:38.051Z,11.30
2022-09-30T23:45:05.202Z,11.30
2022-09-30T23:47:31.923Z,11.30
2022-09-30T23:49:58.694Z,11.30
2022-09-30T23:52:26.782Z,11.30
2022-09-30T23:54:53.628Z,11.30
2022-09-30T23:57:20.599Z,11.30
2022-09-30T23:59:47.366Z,11.30
